sensor_id;sensor_type;location;lat;lon;timestamp;pressure;altitude;pressure_sealevel;temperature;humidity
16194;BME280;8204;53.582;10.080;2023-04-25T00:00:07;98838.56;;;9.79;100.00
16194;BME280;8204;53.582;10.080;2023-04-25T00:02:36;98804.56;;;9.79;100.00
16194;BME280;8204;53.582;10.080;2023-04-25T00:05:06;98767.16;;;9.85;100.00
16194;BME280;8204;53.582;10.080;2023-04-25T00:07:35;98766.75;;;9.75;100.00
16194;BME280;8204;53.582;10.080;2023-04-25T00:10:08;98770.78;;;9.71;100.00
16194;BME280;8204;53.582;10.080;2023-04-25T00:12:37;98784.25;;;9.68;100.00
16194;BME280;8204;53.582;10.080;2023-04-25T00:15:08;98776.00;;;9.65;100.00
16194;BME280;8204;53.582;10.080;2023-04-25T00:17:38;98772.97;;;9.61;100.00
16194;BME280;8204;53.582;10.080;2023-04-25T00:20:08;98761.53;;;9.62;100.00
16194;BME280;8204;53.582;10.080;2023-04-25T00:22:37;98786.81;;;9.49;100.00
16194;BME280;8204;53.582;10.080;2023-04-25T00:25:09;98777.00;;;9.44;100.00
16194;BME280;8204;53.582;10.080;2023-04-25T00:27:37;98766.75;;;9.49;100.00
16194;BME280;8204;53.582;10.080;2023-04-25T00:30:08;98814.97;;;9.41;100.00
16194;BME280;8204;53.582;10.080;2023-04-25T00:32:37;98812.19;;;9.42;100.00
16194;BME280;8204;53.582;10.080;2023-04-25T00:35:07;98818.81;;;9.44;100.00
16194;BME280;8204;53.582;10.080;2023-04-25T00:37:39;98841.31;;;9.45;100.00
16194;BME280;8204;53.582;10.080;2023-04-25T00:40:20;98878.69;;;9.40;100.00
16194;BME280;8204;53.582;10.080;2023-04-25T00:42:51;98907.44;;;9.40;100.00
16194;BME280;8204;53.582;10.080;2023-04-25T00:45:21;98959.94;;;9.38;100.00
16194;BME280;8204;53.582;10.080;2023-04-25T00:47:49;99057.75;;;9.23;100.00
16194;BME280;8204;53.582;10.080;2023-04-25T00:50:26;99097.59;;;9.31;100.00
16194;BME280;8204;53.582;10.080;2023-04-25T00:52:55;99109.25;;;9.29;100.00
16194;BME280;8204;53.582;10.080;2023-04-25T00:55:27;99144.03;;;9.29;100.00
16194;BME280;8204;53.582;10.080;2023-04-25T00:57:57;99178.19;;;9.28;100.00
16194;BME280;8204;53.582;10.080;2023-04-25T01:00:26;99159.78;;;9.36;100.00
16194;BME280;8204;53.582;10.080;2023-04-25T01:02:55;99187.31;;;9.32;100.00
16194;BME280;8204;53.582;10.080;2023-04-25T01:05:24;99217.78;;;9.25;100.00
16194;BME280;8204;53.582;10.080;2023-04-25T01:07:53;99217.47;;;9.34;100.00
16194;BME280;8204;53.582;10.080;2023-04-25T01:10:22;99259.03;;;9.29;100.00
16194;BME280;8204;53.582;10.080;2023-04-25T01:12:53;99300.44;;;9.26;100.00
16194;BME280;8204;53.582;10.080;2023-04-25T01:15:23;99268.44;;;9.24;100.00
16194;BME280;8204;53.582;10.080;2023-04-25T01:17:52;99332.78;;;9.25;100.00
16194;BME280;8204;53.582;10.080;2023-04-25T01:20:22;99310.75;;;9.34;100.00
16194;BME280;8204;53.582;10.080;2023-04-25T01:22:55;99338.00;;;9.25;100.00
16194;BME280;8204;53.582;10.080;2023-04-25T01:25:24;99362.06;;;9.20;100.00
16194;BME280;8204;53.582;10.080;2023-04-25T01:27:53;99431.19;;;9.18;100.00
16194;BME280;8204;53.582;10.080;2023-04-25T01:30:23;99456.44;;;9.11;100.00
16194;BME280;8204;53.582;10.080;2023-04-25T01:32:54;99463.00;;;9.07;100.00
16194;BME280;8204;53.582;10.080;2023-04-25T01:35:24;99436.25;;;9.05;100.00
16194;BME280;8204;53.582;10.080;2023-04-25T01:37:55;99446.69;;;9.05;100.00
16194;BME280;8204;53.582;10.080;2023-04-25T01:40:24;99475.44;;;9.05;100.00
16194;BME280;8204;53.582;10.080;2023-04-25T01:42:53;99461.22;;;8.93;100.00
16194;BME280;8204;53.582;10.080;2023-04-25T01:45:23;99536.31;;;8.91;100.00
16194;BME280;8204;53.582;10.080;2023-04-25T01:47:52;99533.50;;;8.92;100.00
16194;BME280;8204;53.582;10.080;2023-04-25T01:50:20;99555.31;;;8.85;100.00
16194;BME280;8204;53.582;10.080;2023-04-25T01:52:50;99569.81;;;8.87;100.00
16194;BME280;8204;53.582;10.080;2023-04-25T01:55:22;99599.72;;;8.85;100.00
16194;BME280;8204;53.582;10.080;2023-04-25T01:57:51;99635.81;;;8.81;100.00
16194;BME280;8204;53.582;10.080;2023-04-25T02:00:20;99661.06;;;8.89;100.00
16194;BME280;8204;53.582;10.080;2023-04-25T02:02:49;99637.06;;;8.85;100.00
16194;BME280;8204;53.582;10.080;2023-04-25T02:05:19;99640.09;;;8.97;100.00
16194;BME280;8204;53.582;10.080;2023-04-25T02:07:48;99658.03;;;9.00;100.00
16194;BME280;8204;53.582;10.080;2023-04-25T02:10:17;99655.25;;;9.01;100.00
16194;BME280;8204;53.582;10.080;2023-04-25T02:12:48;99650.03;;;9.01;100.00
16194;BME280;8204;53.582;10.080;2023-04-25T02:15:17;99683.34;;;8.99;100.00
16194;BME280;8204;53.582;10.080;2023-04-25T02:17:46;99738.44;;;8.90;100.00
16194;BME280;8204;53.582;10.080;2023-04-25T02:20:16;99702.38;;;8.85;100.00
16194;BME280;8204;53.582;10.080;2023-04-25T02:22:45;99701.53;;;8.93;100.00
16194;BME280;8204;53.582;10.080;2023-04-25T02:25:14;99705.06;;;9.00;100.00
16194;BME280;8204;53.582;10.080;2023-04-25T02:27:43;99733.50;;;8.95;100.00
16194;BME280;8204;53.582;10.080;2023-04-25T02:30:15;99725.66;;;8.95;100.00
16194;BME280;8204;53.582;10.080;2023-04-25T02:32:44;99756.03;;;8.96;100.00
16194;BME280;8204;53.582;10.080;2023-04-25T02:35:13;99756.72;;;8.90;100.00
16194;BME280;8204;53.582;10.080;2023-04-25T02:37:42;99806.06;;;8.85;100.00
16194;BME280;8204;53.582;10.080;2023-04-25T02:40:11;99806.34;;;8.90;100.00
16194;BME280;8204;53.582;10.080;2023-04-25T02:42:40;99811.75;;;8.88;100.00
16194;BME280;8204;53.582;10.080;2023-04-25T02:45:09;99803.78;;;8.82;100.00
16194;BME280;8204;53.582;10.080;2023-04-25T02:47:41;99774.03;;;8.91;100.00
16194;BME280;8204;53.582;10.080;2023-04-25T02:50:09;99783.13;;;8.95;100.00
16194;BME280;8204;53.582;10.080;2023-04-25T02:52:38;99823.31;;;8.94;100.00
16194;BME280;8204;53.582;10.080;2023-04-25T02:55:08;99810.91;;;8.96;100.00
16194;BME280;8204;53.582;10.080;2023-04-25T02:57:37;99850.75;;;8.90;100.00
16194;BME280;8204;53.582;10.080;2023-04-25T03:00:07;99829.38;;;8.86;100.00
16194;BME280;8204;53.582;10.080;2023-04-25T03:02:37;99850.59;;;8.91;100.00
16194;BME280;8204;53.582;10.080;2023-04-25T03:05:08;99862.88;;;8.83;100.00
16194;BME280;8204;53.582;10.080;2023-04-25T03:07:38;99905.03;;;8.72;100.00
16194;BME280;8204;53.582;10.080;2023-04-25T03:10:10;99886.56;;;8.73;100.00
16194;BME280;8204;53.582;10.080;2023-04-25T03:12:38;99914.50;;;8.65;100.00
16194;BME280;8204;53.582;10.080;2023-04-25T03:15:08;99904.06;;;8.65;100.00
16194;BME280;8204;53.582;10.080;2023-04-25T03:17:37;99889.38;;;8.64;100.00
16194;BME280;8204;53.582;10.080;2023-04-25T03:20:10;99920.88;;;8.63;100.00
16194;BME280;8204;53.582;10.080;2023-04-25T03:22:39;99961.03;;;8.46;100.00
16194;BME280;8204;53.582;10.080;2023-04-25T03:25:08;99949.94;;;8.52;100.00
16194;BME280;8204;53.582;10.080;2023-04-25T03:27:37;99972.63;;;8.43;100.00
16194;BME280;8204;53.582;10.080;2023-04-25T03:30:07;99984.06;;;8.34;100.00
16194;BME280;8204;53.582;10.080;2023-04-25T03:32:36;99978.19;;;8.40;100.00
16194;BME280;8204;53.582;10.080;2023-04-25T03:35:08;99981.44;;;8.34;100.00
16194;BME280;8204;53.582;10.080;2023-04-25T03:37:37;99972.78;;;8.26;100.00
16194;BME280;8204;53.582;10.080;2023-04-25T03:40:08;99974.41;;;8.35;100.00
16194;BME280;8204;53.582;10.080;2023-04-25T03:42:37;100059.41;;;8.21;100.00
16194;BME280;8204;53.582;10.080;2023-04-25T03:45:07;100049.94;;;8.20;100.00
16194;BME280;8204;53.582;10.080;2023-04-25T03:47:36;100046.97;;;8.23;100.00
16194;BME280;8204;53.582;10.080;2023-04-25T03:50:09;100040.50;;;8.27;100.00
16194;BME280;8204;53.582;10.080;2023-04-25T03:52:38;100054.03;;;8.31;100.00
16194;BME280;8204;53.582;10.080;2023-04-25T03:55:08;100075.53;;;8.25;100.00
16194;BME280;8204;53.582;10.080;2023-04-25T03:57:36;100076.19;;;8.27;100.00
16194;BME280;8204;53.582;10.080;2023-04-25T04:00:07;100077.66;;;8.29;100.00
16194;BME280;8204;53.582;10.080;2023-04-25T04:02:36;100083.53;;;8.23;100.00
16194;BME280;8204;53.582;10.080;2023-04-25T04:05:08;100115.16;;;8.28;100.00
16194;BME280;8204;53.582;10.080;2023-04-25T04:07:37;100098.22;;;8.32;100.00
16194;BME280;8204;53.582;10.080;2023-04-25T04:10:09;100120.09;;;8.31;100.00
16194;BME280;8204;53.582;10.080;2023-04-25T04:12:38;100134.09;;;8.30;100.00
16194;BME280;8204;53.582;10.080;2023-04-25T04:15:08;100120.41;;;8.36;100.00
16194;BME280;8204;53.582;10.080;2023-04-25T04:17:37;100133.13;;;8.31;100.00
16194;BME280;8204;53.582;10.080;2023-04-25T04:20:10;100167.06;;;8.31;100.00
16194;BME280;8204;53.582;10.080;2023-04-25T04:22:39;100191.66;;;8.21;100.00
16194;BME280;8204;53.582;10.080;2023-04-25T04:25:08;100202.84;;;8.13;100.00
16194;BME280;8204;53.582;10.080;2023-04-25T04:27:38;100188.31;;;8.11;100.00
16194;BME280;8204;53.582;10.080;2023-04-25T04:30:08;100168.63;;;8.16;100.00
16194;BME280;8204;53.582;10.080;2023-04-25T04:32:37;100203.81;;;8.12;100.00
16194;BME280;8204;53.582;10.080;2023-04-25T04:35:09;100201.03;;;8.14;100.00
16194;BME280;8204;53.582;10.080;2023-04-25T04:37:38;100198.31;;;8.15;100.00
16194;BME280;8204;53.582;10.080;2023-04-25T04:40:08;100176.63;;;8.15;100.00
16194;BME280;8204;53.582;10.080;2023-04-25T04:42:37;100208.75;;;8.15;100.00
16194;BME280;8204;53.582;10.080;2023-04-25T04:45:07;100219.59;;;8.03;100.00
16194;BME280;8204;53.582;10.080;2023-04-25T04:47:36;100210.97;;;8.10;100.00
16194;BME280;8204;53.582;10.080;2023-04-25T04:50:06;100219.56;;;8.20;100.00
16194;BME280;8204;53.582;10.080;2023-04-25T04:52:38;100219.91;;;8.25;100.00
16194;BME280;8204;53.582;10.080;2023-04-25T04:55:08;100218.47;;;8.31;100.00
16194;BME280;8204;53.582;10.080;2023-04-25T04:57:36;100250.88;;;8.20;100.00
16194;BME280;8204;53.582;10.080;2023-04-25T05:00:07;100250.88;;;8.20;100.00
16194;BME280;8204;53.582;10.080;2023-04-25T05:02:37;100248.59;;;8.25;100.00
16194;BME280;8204;53.582;10.080;2023-04-25T05:05:07;100280.19;;;8.14;100.00
16194;BME280;8204;53.582;10.080;2023-04-25T05:07:38;100255.41;;;8.18;100.00
16194;BME280;8204;53.582;10.080;2023-04-25T05:10:08;100264.44;;;8.24;100.00
16194;BME280;8204;53.582;10.080;2023-04-25T05:12:37;100276.28;;;8.18;100.00
16194;BME280;8204;53.582;10.080;2023-04-25T05:15:06;100293.88;;;8.16;100.00
16194;BME280;8204;53.582;10.080;2023-04-25T05:17:35;100306.56;;;8.11;100.00
16194;BME280;8204;53.582;10.080;2023-04-25T05:20:06;100320.81;;;7.99;100.00
16194;BME280;8204;53.582;10.080;2023-04-25T05:22:37;100291.00;;;8.02;100.00
16194;BME280;8204;53.582;10.080;2023-04-25T05:25:08;100283.34;;;8.00;100.00
16194;BME280;8204;53.582;10.080;2023-04-25T05:27:37;100258.88;;;8.01;100.00
16194;BME280;8204;53.582;10.080;2023-04-25T05:30:07;100220.41;;;8.03;100.00
16194;BME280;8204;53.582;10.080;2023-04-25T05:32:36;100205.06;;;8.00;100.00
16194;BME280;8204;53.582;10.080;2023-04-25T05:35:06;100197.88;;;8.02;100.00
16194;BME280;8204;53.582;10.080;2023-04-25T05:37:38;100188.47;;;8.09;100.00
16194;BME280;8204;53.582;10.080;2023-04-25T05:40:08;100195.47;;;8.09;100.00
16194;BME280;8204;53.582;10.080;2023-04-25T05:42:37;100241.31;;;8.11;100.00
16194;BME280;8204;53.582;10.080;2023-04-25T05:45:11;100238.81;;;8.02;100.00
16194;BME280;8204;53.582;10.080;2023-04-25T05:47:40;100232.31;;;8.06;100.00
16194;BME280;8204;53.582;10.080;2023-04-25T05:50:09;100233.38;;;7.95;100.00
16194;BME280;8204;53.582;10.080;2023-04-25T05:52:40;100222.09;;;8.12;100.00
16194;BME280;8204;53.582;10.080;2023-04-25T05:55:09;100238.19;;;8.08;100.00
16194;BME280;8204;53.582;10.080;2023-04-25T05:57:38;100245.94;;;8.17;100.00
16194;BME280;8204;53.582;10.080;2023-04-25T06:00:09;100253.66;;;8.27;100.00
16194;BME280;8204;53.582;10.080;2023-04-25T06:02:38;100268.00;;;8.23;100.00
16194;BME280;8204;53.582;10.080;2023-04-25T06:05:08;100261.03;;;8.31;100.00
16194;BME280;8204;53.582;10.080;2023-04-25T06:07:36;100285.31;;;8.32;100.00
16194;BME280;8204;53.582;10.080;2023-04-25T06:10:09;100265.94;;;8.34;100.00
16194;BME280;8204;53.582;10.080;2023-04-25T06:12:38;100258.28;;;8.41;100.00
16194;BME280;8204;53.582;10.080;2023-04-25T06:15:07;100253.78;;;8.51;100.00
16194;BME280;8204;53.582;10.080;2023-04-25T06:17:36;100289.84;;;8.55;100.00
16194;BME280;8204;53.582;10.080;2023-04-25T06:20:07;100286.59;;;8.53;100.00
16194;BME280;8204;53.582;10.080;2023-04-25T06:22:36;100288.22;;;8.54;100.00
16194;BME280;8204;53.582;10.080;2023-04-25T06:25:08;100293.94;;;8.58;100.00
16194;BME280;8204;53.582;10.080;2023-04-25T06:27:37;100284.84;;;8.62;100.00
16194;BME280;8204;53.582;10.080;2023-04-25T06:30:07;100285.97;;;8.59;100.00
16194;BME280;8204;53.582;10.080;2023-04-25T06:32:38;100291.31;;;8.58;100.00
16194;BME280;8204;53.582;10.080;2023-04-25T06:35:08;100255.91;;;8.55;100.00
16194;BME280;8204;53.582;10.080;2023-04-25T06:37:37;100306.81;;;8.51;100.00
16194;BME280;8204;53.582;10.080;2023-04-25T06:40:10;100266.50;;;8.54;100.00
16194;BME280;8204;53.582;10.080;2023-04-25T06:42:40;100261.66;;;8.67;100.00
16194;BME280;8204;53.582;10.080;2023-04-25T06:45:10;100264.31;;;8.74;100.00
16194;BME280;8204;53.582;10.080;2023-04-25T06:47:41;100240.97;;;8.81;100.00
16194;BME280;8204;53.582;10.080;2023-04-25T06:50:10;100250.41;;;8.66;100.00
16194;BME280;8204;53.582;10.080;2023-04-25T06:52:39;100232.28;;;8.65;100.00
16194;BME280;8204;53.582;10.080;2023-04-25T06:55:11;100217.47;;;8.81;100.00
16194;BME280;8204;53.582;10.080;2023-04-25T06:57:39;100244.56;;;8.72;100.00
16194;BME280;8204;53.582;10.080;2023-04-25T07:00:09;100275.22;;;8.70;100.00
16194;BME280;8204;53.582;10.080;2023-04-25T07:02:38;100258.38;;;8.65;100.00
16194;BME280;8204;53.582;10.080;2023-04-25T07:05:09;100263.16;;;8.77;100.00
16194;BME280;8204;53.582;10.080;2023-04-25T07:07:38;100282.28;;;8.85;100.00
16194;BME280;8204;53.582;10.080;2023-04-25T07:10:07;100301.06;;;8.81;100.00
16194;BME280;8204;53.582;10.080;2023-04-25T07:12:38;100303.53;;;8.82;100.00
16194;BME280;8204;53.582;10.080;2023-04-25T07:15:08;100314.59;;;8.76;100.00
16194;BME280;8204;53.582;10.080;2023-04-25T07:17:37;100303.69;;;8.89;100.00
16194;BME280;8204;53.582;10.080;2023-04-25T07:20:08;100342.22;;;8.87;100.00
16194;BME280;8204;53.582;10.080;2023-04-25T07:22:37;100373.19;;;8.74;100.00
16194;BME280;8204;53.582;10.080;2023-04-25T07:25:07;100343.75;;;8.64;100.00
16194;BME280;8204;53.582;10.080;2023-04-25T07:27:38;100355.50;;;8.60;100.00
16194;BME280;8204;53.582;10.080;2023-04-25T07:30:08;100333.78;;;8.60;100.00
16194;BME280;8204;53.582;10.080;2023-04-25T07:32:41;100291.88;;;8.69;100.00
16194;BME280;8204;53.582;10.080;2023-04-25T07:35:11;100308.03;;;8.72;100.00
16194;BME280;8204;53.582;10.080;2023-04-25T07:37:40;100304.97;;;8.77;100.00
16194;BME280;8204;53.582;10.080;2023-04-25T07:40:09;100292.56;;;8.87;100.00
16194;BME280;8204;53.582;10.080;2023-04-25T07:42:41;100307.78;;;8.91;100.00
16194;BME280;8204;53.582;10.080;2023-04-25T07:45:11;100339.31;;;8.90;100.00
16194;BME280;8204;53.582;10.080;2023-04-25T07:47:39;100333.41;;;8.80;100.00
16194;BME280;8204;53.582;10.080;2023-04-25T07:50:09;100343.34;;;8.84;100.00
16194;BME280;8204;53.582;10.080;2023-04-25T07:52:38;100313.47;;;8.87;100.00
16194;BME280;8204;53.582;10.080;2023-04-25T07:55:08;100328.06;;;8.97;100.00
16194;BME280;8204;53.582;10.080;2023-04-25T07:57:37;100323.50;;;8.99;100.00
16194;BME280;8204;53.582;10.080;2023-04-25T08:00:14;100339.38;;;9.06;100.00
16194;BME280;8204;53.582;10.080;2023-04-25T08:02:43;100340.47;;;9.03;100.00
16194;BME280;8204;53.582;10.080;2023-04-25T08:05:11;100353.09;;;9.16;100.00
16194;BME280;8204;53.582;10.080;2023-04-25T08:07:42;100358.69;;;9.29;100.00
16194;BME280;8204;53.582;10.080;2023-04-25T08:10:11;100366.22;;;9.40;100.00
16194;BME280;8204;53.582;10.080;2023-04-25T08:12:41;100396.50;;;9.50;100.00
16194;BME280;8204;53.582;10.080;2023-04-25T08:15:12;100409.44;;;9.51;100.00
16194;BME280;8204;53.582;10.080;2023-04-25T08:17:42;100406.63;;;9.45;100.00
16194;BME280;8204;53.582;10.080;2023-04-25T08:20:12;100407.78;;;9.50;100.00
16194;BME280;8204;53.582;10.080;2023-04-25T08:22:40;100417.91;;;9.45;100.00
16194;BME280;8204;53.582;10.080;2023-04-25T08:25:09;100408.44;;;9.52;100.00
16194;BME280;8204;53.582;10.080;2023-04-25T08:27:39;100430.00;;;9.46;100.00
16194;BME280;8204;53.582;10.080;2023-04-25T08:30:08;100425.09;;;9.43;100.00
16194;BME280;8204;53.582;10.080;2023-04-25T08:32:40;100409.91;;;9.47;100.00
16194;BME280;8204;53.582;10.080;2023-04-25T08:35:09;100431.34;;;9.50;100.00
16194;BME280;8204;53.582;10.080;2023-04-25T08:37:38;100381.63;;;9.43;100.00
16194;BME280;8204;53.582;10.080;2023-04-25T08:40:11;100337.69;;;9.54;100.00
16194;BME280;8204;53.582;10.080;2023-04-25T08:42:41;100342.41;;;9.58;100.00
16194;BME280;8204;53.582;10.080;2023-04-25T08:45:11;100368.91;;;9.63;100.00
16194;BME280;8204;53.582;10.080;2023-04-25T08:47:45;100369.25;;;9.76;100.00
16194;BME280;8204;53.582;10.080;2023-04-25T08:50:14;100388.56;;;9.83;100.00
16194;BME280;8204;53.582;10.080;2023-04-25T08:52:44;100409.66;;;9.90;100.00
16194;BME280;8204;53.582;10.080;2023-04-25T08:55:14;100424.19;;;9.76;100.00
16194;BME280;8204;53.582;10.080;2023-04-25T08:57:44;100472.03;;;9.53;100.00
16194;BME280;8204;53.582;10.080;2023-04-25T09:00:14;100474.81;;;9.51;100.00
16194;BME280;8204;53.582;10.080;2023-04-25T09:02:46;100441.66;;;9.60;100.00
16194;BME280;8204;53.582;10.080;2023-04-25T09:05:15;100465.66;;;9.55;100.00
16194;BME280;8204;53.582;10.080;2023-04-25T09:07:44;100504.56;;;9.50;100.00
16194;BME280;8204;53.582;10.080;2023-04-25T09:10:13;100513.75;;;9.62;100.00
16194;BME280;8204;53.582;10.080;2023-04-25T09:12:42;100520.66;;;9.71;100.00
16194;BME280;8204;53.582;10.080;2023-04-25T09:15:12;100504.03;;;9.88;100.00
16194;BME280;8204;53.582;10.080;2023-04-25T09:17:41;100529.88;;;9.91;100.00
16194;BME280;8204;53.582;10.080;2023-04-25T09:20:14;100530.84;;;9.82;100.00
16194;BME280;8204;53.582;10.080;2023-04-25T09:22:45;100541.63;;;9.87;100.00
16194;BME280;8204;53.582;10.080;2023-04-25T09:25:14;100557.69;;;9.92;100.00
16194;BME280;8204;53.582;10.080;2023-04-25T09:27:50;100550.28;;;9.88;100.00
16194;BME280;8204;53.582;10.080;2023-04-25T09:30:29;100565.63;;;9.75;100.00
16194;BME280;8204;53.582;10.080;2023-04-25T09:33:04;100549.16;;;9.82;100.00
16194;BME280;8204;53.582;10.080;2023-04-25T09:35:40;100581.22;;;9.84;100.00
16194;BME280;8204;53.582;10.080;2023-04-25T09:38:10;100554.97;;;10.02;100.00
16194;BME280;8204;53.582;10.080;2023-04-25T09:40:40;100589.50;;;10.05;100.00
16194;BME280;8204;53.582;10.080;2023-04-25T09:43:10;100571.19;;;10.13;100.00
16194;BME280;8204;53.582;10.080;2023-04-25T09:45:43;100598.19;;;10.06;100.00
16194;BME280;8204;53.582;10.080;2023-04-25T09:48:17;100609.63;;;10.05;100.00
16194;BME280;8204;53.582;10.080;2023-04-25T09:51:03;100260.53;;;9.42;100.00
16194;BME280;8204;53.582;10.080;2023-04-25T09:53:33;100083.59;;;8.95;100.00
16194;BME280;8204;53.582;10.080;2023-04-25T09:56:04;100049.47;;;8.49;100.00
16194;BME280;8204;53.582;10.080;2023-04-25T09:58:34;99942.94;;;8.44;100.00
16194;BME280;8204;53.582;10.080;2023-04-25T10:01:05;99803.22;;;8.56;100.00
16194;BME280;8204;53.582;10.080;2023-04-25T10:03:36;99696.94;;;8.65;100.00
16194;BME280;8204;53.582;10.080;2023-04-25T10:06:08;99738.09;;;8.63;100.00
16194;BME280;8204;53.582;10.080;2023-04-25T10:08:42;99838.91;;;8.71;100.00
16194;BME280;8204;53.582;10.080;2023-04-25T10:11:11;99806.69;;;8.87;100.00
16194;BME280;8204;53.582;10.080;2023-04-25T10:13:41;99931.38;;;9.01;100.00
16194;BME280;8204;53.582;10.080;2023-04-25T10:16:11;100008.13;;;9.08;100.00
16194;BME280;8204;53.582;10.080;2023-04-25T10:18:40;100001.22;;;9.31;100.00
16194;BME280;8204;53.582;10.080;2023-04-25T10:21:12;100032.97;;;9.58;100.00
16194;BME280;8204;53.582;10.080;2023-04-25T10:23:43;100083.41;;;9.82;100.00
16194;BME280;8204;53.582;10.080;2023-04-25T10:26:13;100236.97;;;9.98;100.00
16194;BME280;8204;53.582;10.080;2023-04-25T10:28:55;100497.66;;;9.91;100.00
16194;BME280;8204;53.582;10.080;2023-04-25T10:31:24;100517.59;;;9.84;100.00
16194;BME280;8204;53.582;10.080;2023-04-25T10:33:53;100608.16;;;9.77;100.00
16194;BME280;8204;53.582;10.080;2023-04-25T10:36:25;100611.63;;;9.77;100.00
16194;BME280;8204;53.582;10.080;2023-04-25T10:38:55;100606.38;;;9.77;100.00
16194;BME280;8204;53.582;10.080;2023-04-25T10:41:24;100607.72;;;9.89;100.00
16194;BME280;8204;53.582;10.080;2023-04-25T10:43:59;100612.06;;;10.06;100.00
16194;BME280;8204;53.582;10.080;2023-04-25T10:46:30;100615.03;;;10.11;100.00
16194;BME280;8204;53.582;10.080;2023-04-25T10:49:02;100619.31;;;10.20;100.00
16194;BME280;8204;53.582;10.080;2023-04-25T10:51:36;100621.34;;;10.34;100.00
16194;BME280;8204;53.582;10.080;2023-04-25T10:54:08;100615.31;;;10.49;100.00
16194;BME280;8204;53.582;10.080;2023-04-25T10:56:38;100625.81;;;10.65;100.00
16194;BME280;8204;53.582;10.080;2023-04-25T10:59:12;100620.78;;;10.88;100.00
16194;BME280;8204;53.582;10.080;2023-04-25T11:01:42;100637.78;;;10.84;100.00
16194;BME280;8204;53.582;10.080;2023-04-25T11:04:21;100630.56;;;10.78;100.00
16194;BME280;8204;53.582;10.080;2023-04-25T11:07:10;100646.44;;;10.60;100.00
16194;BME280;8204;53.582;10.080;2023-04-25T11:09:42;100666.53;;;10.44;100.00
16194;BME280;8204;53.582;10.080;2023-04-25T11:12:13;100678.94;;;10.34;100.00
16194;BME280;8204;53.582;10.080;2023-04-25T11:14:43;100688.41;;;10.27;100.00
16194;BME280;8204;53.582;10.080;2023-04-25T11:17:12;100683.03;;;10.36;100.00
16194;BME280;8204;53.582;10.080;2023-04-25T11:19:41;100671.78;;;10.52;100.00
16194;BME280;8204;53.582;10.080;2023-04-25T11:22:12;100675.25;;;10.60;100.00
16194;BME280;8204;53.582;10.080;2023-04-25T11:24:41;100680.34;;;10.62;100.00
16194;BME280;8204;53.582;10.080;2023-04-25T11:27:12;100677.72;;;10.62;100.00
16194;BME280;8204;53.582;10.080;2023-04-25T11:29:41;100668.06;;;10.62;100.00
16194;BME280;8204;53.582;10.080;2023-04-25T11:32:10;100672.31;;;10.63;100.00
16194;BME280;8204;53.582;10.080;2023-04-25T11:34:39;100677.03;;;10.52;100.00
16194;BME280;8204;53.582;10.080;2023-04-25T11:37:07;100685.31;;;10.31;100.00
16194;BME280;8204;53.582;10.080;2023-04-25T11:39:42;100676.00;;;10.29;100.00
16194;BME280;8204;53.582;10.080;2023-04-25T11:42:14;100683.47;;;10.24;100.00
16194;BME280;8204;53.582;10.080;2023-04-25T11:44:43;100687.78;;;10.33;100.00
16194;BME280;8204;53.582;10.080;2023-04-25T11:47:12;100626.41;;;9.94;100.00
16194;BME280;8204;53.582;10.080;2023-04-25T11:49:41;100528.06;;;9.84;100.00
16194;BME280;8204;53.582;10.080;2023-04-25T11:52:10;100596.59;;;9.87;100.00
16194;BME280;8204;53.582;10.080;2023-04-25T11:54:41;100648.09;;;9.79;100.00
16194;BME280;8204;53.582;10.080;2023-04-25T11:57:12;100656.31;;;10.17;100.00
16194;BME280;8204;53.582;10.080;2023-04-25T11:59:42;100663.63;;;10.55;100.00
16194;BME280;8204;53.582;10.080;2023-04-25T12:02:24;100670.53;;;10.72;100.00
16194;BME280;8204;53.582;10.080;2023-04-25T12:04:53;100690.19;;;10.68;100.00
16194;BME280;8204;53.582;10.080;2023-04-25T12:07:28;100690.75;;;11.03;100.00
16194;BME280;8204;53.582;10.080;2023-04-25T12:10:04;100683.38;;;11.46;100.00
16194;BME280;8204;53.582;10.080;2023-04-25T12:12:33;100712.06;;;11.71;100.00
16194;BME280;8204;53.582;10.080;2023-04-25T12:15:12;100700.22;;;11.83;100.00
16194;BME280;8204;53.582;10.080;2023-04-25T12:17:42;100709.91;;;11.75;100.00
16194;BME280;8204;53.582;10.080;2023-04-25T12:20:14;100710.41;;;11.70;100.00
16194;BME280;8204;53.582;10.080;2023-04-25T12:22:45;100711.59;;;11.52;100.00
16194;BME280;8204;53.582;10.080;2023-04-25T12:25:38;100760.13;;;11.72;100.00
16194;BME280;8204;53.582;10.080;2023-04-25T12:28:12;100735.66;;;11.87;100.00
16194;BME280;8204;53.582;10.080;2023-04-25T12:30:56;100746.28;;;12.02;100.00
16194;BME280;8204;53.582;10.080;2023-04-25T12:33:28;100755.81;;;11.95;100.00
16194;BME280;8204;53.582;10.080;2023-04-25T12:35:57;100756.19;;;11.92;100.00
16194;BME280;8204;53.582;10.080;2023-04-25T12:38:31;100753.38;;;11.85;91.32
16194;BME280;8204;53.582;10.080;2023-04-25T12:41:02;100757.66;;;11.86;96.84
16194;BME280;8204;53.582;10.080;2023-04-25T12:43:31;100764.50;;;12.03;92.93
16194;BME280;8204;53.582;10.080;2023-04-25T12:46:01;100754.47;;;12.07;94.94
16194;BME280;8204;53.582;10.080;2023-04-25T12:48:30;100764.19;;;12.52;98.74
16194;BME280;8204;53.582;10.080;2023-04-25T12:50:58;100753.44;;;12.70;87.37
16194;BME280;8204;53.582;10.080;2023-04-25T12:53:27;100761.69;;;12.67;85.79
16194;BME280;8204;53.582;10.080;2023-04-25T12:55:56;100762.72;;;12.58;87.45
16194;BME280;8204;53.582;10.080;2023-04-25T12:58:27;100795.69;;;12.14;95.26
16194;BME280;8204;53.582;10.080;2023-04-25T13:00:56;100767.84;;;11.73;100.00
16194;BME280;8204;53.582;10.080;2023-04-25T13:03:25;100790.59;;;11.49;100.00
16194;BME280;8204;53.582;10.080;2023-04-25T13:05:54;100791.75;;;11.47;100.00
16194;BME280;8204;53.582;10.080;2023-04-25T13:08:22;100795.91;;;11.57;100.00